Terminal Aerodrome Forecast
Issued by NWS Charleston, WV

Current Version | Previous Version | Graphics & Text | Print | Product List | Glossary On
Versions: 1 2 3 4 5 6 7 8 9 10 11 12 13 14 15 16 17 18 19 20 21 22 23 24
000
FTUS41 KRLX 180500
TAFPKB
TAF
KPKB 180521Z 1806/1906 00000KT 6SM BR SCT001 BKN040
      TEMPO 1806/1808 3SM BR
     FM180800 00000KT 2SM BR SCT001 BKN040
     FM181200 VRB03KT 6SM BR BKN040
     FM181600 VRB04KT 6SM BR VCTS BKN040CB
     FM190400 00000KT P6SM BKN040=

USA.gov is the U.S. government's official web portal to all federal, state and local government web resources and services.